Time;durP1;ratioP1;P1;durP2;ratioP2;P2;SDS_P1;SDS_P2;PMS_P1;PMS_P2;Temp;Humidity;BMP_temperature;BMP_pressure;BME280_temperature;BME280_humidity;BME280_pressure;Samples;Min_cycle;Max_cycle;Signal;HPM_P1;HPM_P2
2022/10/04 00:02:01;;;;;;;16.55;11.88;;;11.30;99.90;;;;;;5054356;28;20037;-77
2022/10/04 00:04:56;;;;;;;13.85;12.07;;;11.30;99.90;;;;;;5035910;28;20045;-77
2022/10/04 00:07:29;;;;;;;15.32;11.30;;;11.30;99.90;;;;;;5048308;28;20048;-77
2022/10/04 00:10:29;;;;;;;15.65;12.57;;;11.30;99.90;;;;;;5054587;28;20364;-77
2022/10/04 00:13:01;;;;;;;16.27;11.20;;;11.30;99.90;;;;;;4994230;28;20082;-78
2022/10/04 00:15:37;;;;;;;16.58;11.57;;;11.40;99.90;;;;;;5052593;28;20513;-78
2022/10/04 00:18:30;;;;;;;15.35;12.07;;;11.30;99.90;;;;;;5036992;28;20048;-77
2022/10/04 00:21:02;;;;;;;15.27;11.97;;;11.30;99.90;;;;;;5037111;28;20119;-77
2022/10/04 00:23:41;;;;;;;14.65;10.90;;;11.30;99.90;;;;;;5034468;28;20383;-77
2022/10/04 00:26:22;;;;;;;15.77;11.18;;;11.40;99.90;;;;;;5045455;28;20048;-77
2022/10/04 00:28:48;;;;;;;17.88;12.35;;;11.40;99.90;;;;;;5053570;28;20067;-77
2022/10/04 00:31:16;;;;;;;13.48;11.57;;;11.40;99.90;;;;;;5053651;28;20044;-77
2022/10/04 00:34:16;;;;;;;16.70;11.90;;;11.40;99.90;;;;;;5048871;28;20037;-77
2022/10/04 00:36:45;;;;;;;13.90;11.60;;;11.40;99.90;;;;;;5033519;28;20379;-77
2022/10/04 00:39:21;;;;;;;15.88;10.60;;;11.40;99.90;;;;;;5036696;28;20037;-77
2022/10/04 00:41:47;;;;;;;13.68;10.45;;;11.40;99.90;;;;;;5052948;28;20119;-77
2022/10/04 00:44:34;;;;;;;16.40;10.93;;;11.40;99.90;;;;;;5050441;28;20182;-77
2022/10/04 00:47:11;;;;;;;12.43;9.60;;;11.40;99.90;;;;;;5050975;28;20057;-77
2022/10/04 00:49:40;;;;;;;13.32;9.93;;;11.40;99.90;;;;;;5036915;28;20040;-77
2022/10/04 00:52:13;;;;;;;15.35;10.40;;;11.40;99.90;;;;;;5034574;28;20068;-78
2022/10/04 00:54:45;;;;;;;;;;;11.40;99.90;;;;;;5035562;28;20101;-77
2022/10/04 00:57:23;;;;;;;12.50;10.15;;;11.40;99.90;;;;;;5032559;28;19916;-78
2022/10/04 00:59:58;;;;;;;13.70;10.05;;;11.40;99.90;;;;;;5067813;28;20047;-78
2022/10/04 01:02:30;;;;;;;11.68;10.15;;;11.40;99.90;;;;;;5035851;28;20107;-77
2022/10/04 01:04:59;;;;;;;15.15;10.82;;;11.40;99.90;;;;;;5070917;28;20064;-78
2022/10/04 01:07:56;;;;;;;13.93;10.00;;;11.40;99.90;;;;;;5057196;28;20119;-78
2022/10/04 01:10:33;;;;;;;12.90;9.52;;;11.40;99.90;;;;;;5056925;28;20139;-77
2022/10/04 01:13:11;;;;;;;12.90;9.18;;;11.40;99.90;;;;;;5056082;28;20082;-77
2022/10/04 01:15:58;;;;;;;14.57;9.88;;;11.50;99.90;;;;;;5056391;28;20127;-77
2022/10/04 01:18:23;;;;;;;11.93;9.70;;;11.40;99.90;;;;;;5020742;28;20048;-78
2022/10/04 01:20:53;;;;;;;15.10;9.75;;;11.40;99.90;;;;;;5035366;28;20044;-77
2022/10/04 01:23:48;;;;;;;12.35;10.18;;;11.40;99.90;;;;;;5039499;28;20040;-77
2022/10/04 01:26:30;;;;;;;12.90;9.80;;;11.40;99.90;;;;;;5049134;28;20037;-77
2022/10/04 01:28:59;;;;;;;13.52;9.27;;;11.40;99.90;;;;;;5039940;28;20053;-77
2022/10/04 01:31:30;;;;;;;13.57;10.07;;;11.40;99.90;;;;;;5057007;28;20040;-77
2022/10/04 01:33:56;;;;;;;15.02;10.52;;;11.40;99.90;;;;;;5054918;28;20115;-78
2022/10/04 01:36:21;;;;;;;14.90;10.55;;;11.40;99.90;;;;;;5056520;28;20123;-78
2022/10/04 01:38:48;;;;;;;13.10;10.05;;;11.40;99.90;;;;;;5039828;28;20170;-78
2022/10/04 01:41:18;;;;;;;10.23;9.10;;;11.30;99.90;;;;;;5040056;28;20494;-78
2022/10/04 01:43:49;;;;;;;13.52;10.20;;;11.30;99.90;;;;;;5053958;28;20086;-78
2022/10/04 01:46:41;;;;;;;12.38;9.73;;;11.30;99.90;;;;;;5053173;28;20098;-78
2022/10/04 01:49:11;;;;;;;17.42;9.95;;;11.20;99.90;;;;;;5059349;28;20059;-77
2022/10/04 01:51:49;;;;;;;13.48;9.43;;;11.20;99.90;;;;;;5056506;28;20045;-77
2022/10/04 01:54:22;;;;;;;12.43;10.25;;;11.20;99.90;;;;;;5055203;28;20039;-77
2022/10/04 01:57:05;;;;;;;14.32;11.15;;;11.20;99.90;;;;;;5056401;28;20423;-77
2022/10/04 01:59:42;;;;;;;13.95;11.55;;;11.20;99.90;;;;;;5056337;28;20082;-77
2022/10/04 02:02:21;;;;;;;12.95;10.52;;;11.10;99.90;;;;;;5055098;28;20115;-77
2022/10/04 02:04:53;;;;;;;17.38;11.60;;;11.10;99.90;;;;;;5055453;28;20044;-77
2022/10/04 02:07:20;;;;;;;11.47;10.03;;;11.10;99.90;;;;;;5039341;28;20041;-77
2022/10/04 02:09:49;;;;;;;14.85;11.55;;;11.00;99.90;;;;;;5039401;28;20115;-77
2022/10/04 02:12:18;;;;;;;14.85;11.23;;;11.00;99.90;;;;;;5055389;28;20126;-77
2022/10/04 02:14:54;;;;;;;15.30;11.38;;;11.00;99.90;;;;;;5055059;28;20064;-77
2022/10/04 02:17:27;;;;;;;16.20;11.07;;;10.90;99.90;;;;;;5051005;28;20505;-77
2022/10/04 02:19:53;;;;;;;16.27;11.63;;;10.90;99.90;;;;;;5054273;28;20040;-77
2022/10/04 02:22:21;;;;;;;15.60;11.32;;;10.80;99.90;;;;;;5055151;28;20036;-77
2022/10/04 02:24:49;;;;;;;13.93;11.18;;;10.80;99.90;;;;;;5055064;28;20055;-77
2022/10/04 02:27:15;;;;;;;12.77;11.32;;;10.70;99.90;;;;;;5055860;28;20048;-78
2022/10/04 02:29:41;;;;;;;13.25;11.85;;;10.70;99.90;;;;;;5054439;28;20067;-78
2022/10/04 02:34:54;;;;;;;16.02;12.25;;;10.60;99.90;;;;;;5052948;28;20068;-77
2022/10/04 02:37:25;;;;;;;13.07;11.52;;;10.60;99.90;;;;;;5055250;28;20040;-77
2022/10/04 02:40:29;;;;;;;15.13;11.82;;;10.60;99.90;;;;;;5055746;28;20042;-77
2022/10/04 02:43:06;;;;;;;15.93;11.35;;;10.50;99.90;;;;;;5010069;28;20055;-78
2022/10/04 02:45:49;;;;;;;14.48;12.80;;;10.50;99.90;;;;;;5054854;28;20040;-77
2022/10/04 02:48:36;;;;;;;15.50;13.38;;;10.40;99.90;;;;;;5062314;22;20015;-77
2022/10/04 02:51:15;;;;;;;17.13;13.77;;;10.40;99.90;;;;;;5038103;28;20040;-77
2022/10/04 02:53:48;;;;;;;14.75;13.13;;;10.30;99.90;;;;;;5037381;28;20123;-77
2022/10/04 02:56:15;;;;;;;15.03;13.37;;;10.30;99.90;;;;;;5038007;28;20036;-77
2022/10/04 02:58:41;;;;;;;18.20;14.57;;;10.30;99.90;;;;;;5054886;28;20119;-77
2022/10/04 03:01:22;;;;;;;18.33;15.45;;;10.30;99.90;;;;;;5054416;28;20047;-77
2022/10/04 03:03:48;;;;;;;16.85;14.85;;;10.20;99.90;;;;;;5053408;28;20036;-77
2022/10/04 03:06:17;;;;;;;20.40;14.82;;;10.20;99.90;;;;;;5036390;28;20044;-77
2022/10/04 03:08:45;;;;;;;17.92;15.07;;;10.20;99.90;;;;;;5054507;28;20577;-76
2022/10/04 03:11:12;;;;;;;17.80;16.00;;;10.10;99.90;;;;;;5037694;28;20036;-77
2022/10/04 03:13:40;;;;;;;18.58;15.95;;;10.10;99.90;;;;;;5031702;28;20494;-77
2022/10/04 03:16:07;;;;;;;19.77;15.68;;;10.10;99.90;;;;;;5051701;28;20033;-77
2022/10/04 03:18:35;;;;;;;18.25;16.42;;;10.00;99.90;;;;;;5041716;28;20040;-77
2022/10/04 03:21:10;;;;;;;19.50;16.58;;;10.10;99.90;;;;;;5035865;28;20033;-77
2022/10/04 03:23:37;;;;;;;20.17;17.73;;;10.10;99.90;;;;;;5031612;28;20041;-77
2022/10/04 03:26:16;;;;;;;22.77;19.33;;;10.00;99.90;;;;;;5071237;28;20545;-76
2022/10/04 03:28:42;;;;;;;21.83;16.98;;;10.00;99.90;;;;;;5054171;28;20040;-76
2022/10/04 03:31:08;;;;;;;21.40;18.05;;;10.00;99.90;;;;;;5033801;28;20115;-77
2022/10/04 03:33:34;;;;;;;20.35;18.23;;;10.00;99.90;;;;;;5032460;28;20036;-77
2022/10/04 03:36:00;;;;;;;22.27;19.08;;;10.00;99.90;;;;;;5037167;28;20048;-77
2022/10/04 03:38:27;;;;;;;20.33;18.23;;;10.00;99.90;;;;;;5054562;28;20390;-77
2022/10/04 03:40:56;;;;;;;21.40;17.80;;;9.90;99.90;;;;;;5037522;28;20390;-77
2022/10/04 03:43:26;;;;;;;22.75;18.17;;;9.90;99.90;;;;;;5053288;28;20037;-77
2022/10/04 03:45:52;;;;;;;20.95;18.60;;;9.90;99.90;;;;;;5054007;28;20047;-77
2022/10/04 03:48:27;;;;;;;23.15;20.25;;;9.90;99.90;;;;;;5053781;28;20475;-77
2022/10/04 03:50:53;;;;;;;22.50;19.83;;;9.90;99.90;;;;;;5036766;28;20040;-76
2022/10/04 03:53:42;;;;;;;23.88;19.15;;;9.80;99.90;;;;;;5044302;28;20028;-77
2022/10/04 03:56:16;;;;;;;22.63;18.85;;;9.80;99.90;;;;;;5070946;28;20437;-77
2022/10/04 03:58:42;;;;;;;25.33;19.45;;;9.80;99.90;;;;;;5035581;28;20063;-77
2022/10/04 04:01:26;;;;;;;22.73;18.67;;;9.80;99.90;;;;;;5051107;28;20090;-77
2022/10/04 04:03:52;;;;;;;24.80;19.15;;;9.70;99.90;;;;;;5067684;28;20036;-77
2022/10/04 04:06:18;;;;;;;22.58;19.05;;;9.60;99.90;;;;;;5053036;28;20128;-77
2022/10/04 04:08:47;;;;;;;23.15;20.42;;;9.60;99.90;;;;;;5032329;28;20041;-77
2022/10/04 04:11:23;;;;;;;30.75;21.33;;;9.60;99.90;;;;;;5031577;28;20048;-77
2022/10/04 04:14:06;;;;;;;29.73;22.05;;;9.60;99.90;;;;;;5053822;28;20040;-77
2022/10/04 04:16:33;;;;;;;;;;;9.60;99.90;;;;;;5051241;28;20119;-77
2022/10/04 04:19:02;;;;;;;27.20;21.45;;;9.60;99.90;;;;;;5052532;28;19942;-77
2022/10/04 04:21:29;;;;;;;22.50;19.88;;;9.50;99.90;;;;;;5028652;28;20102;-77
2022/10/04 04:24:07;;;;;;;25.85;22.20;;;9.50;99.90;;;;;;5050289;28;20410;-77
2022/10/04 04:26:39;;;;;;;25.35;20.55;;;9.50;99.90;;;;;;5031599;28;20702;-77
2022/10/04 04:29:25;;;;;;;27.02;20.55;;;9.50;99.90;;;;;;5035685;28;20043;-77
2022/10/04 04:32:10;;;;;;;26.50;21.55;;;9.40;99.90;;;;;;5050867;28;20040;-77
2022/10/04 04:34:59;;;;;;;26.73;21.17;;;9.40;99.90;;;;;;5035529;28;20040;-77
2022/10/04 04:37:25;;;;;;;24.00;21.52;;;9.40;99.90;;;;;;5040039;28;20045;-77
2022/10/04 04:39:55;;;;;;;28.75;21.95;;;9.40;99.90;;;;;;5038883;28;20502;-78
2022/10/04 04:42:31;;;;;;;22.00;19.70;;;9.30;99.90;;;;;;5037153;28;20401;-79
2022/10/04 04:45:24;;;;;;;31.02;21.88;;;9.30;99.90;;;;;;5051217;28;20408;-78
2022/10/04 04:47:52;;;;;;;40.92;23.80;;;9.30;99.90;;;;;;5051999;28;20051;-77
2022/10/04 04:50:31;;;;;;;31.02;24.92;;;9.20;99.90;;;;;;5051349;28;20040;-77
2022/10/04 04:52:59;;;;;;;30.98;23.30;;;9.20;99.90;;;;;;5051922;28;20038;-78
2022/10/04 04:55:43;;;;;;;28.65;24.33;;;9.20;99.90;;;;;;5034089;28;20082;-77
2022/10/04 04:58:22;;;;;;;38.88;25.70;;;9.20;99.90;;;;;;5047819;28;20540;-77
2022/10/04 05:01:03;;;;;;;36.85;26.08;;;9.30;99.90;;;;;;5053289;28;20108;-77
2022/10/04 05:03:29;;;;;;;31.60;25.42;;;9.30;99.90;;;;;;5053087;28;20832;-77
2022/10/04 05:05:57;;;;;;;35.70;27.10;;;9.30;99.90;;;;;;5036717;28;20130;-77
2022/10/04 05:08:27;;;;;;;31.38;25.75;;;9.30;99.90;;;;;;5049811;28;20036;-78
2022/10/04 05:11:08;;;;;;;32.70;26.65;;;9.30;99.90;;;;;;5034440;28;20044;-78
2022/10/04 05:13:55;;;;;;;34.10;28.17;;;9.30;99.90;;;;;;5037178;28;20064;-78
2022/10/04 05:16:41;;;;;;;34.80;26.70;;;9.30;99.90;;;;;;5047943;28;20043;-78
2022/10/04 05:19:27;;;;;;;32.67;27.75;;;9.30;99.90;;;;;;5036364;28;20568;-78
2022/10/04 05:21:55;;;;;;;41.13;27.88;;;9.30;99.90;;;;;;5047154;28;20033;-77
2022/10/04 05:24:33;;;;;;;31.67;26.55;;;9.30;99.90;;;;;;5051887;28;20047;-77
2022/10/04 05:27:06;;;;;;;31.25;26.45;;;9.30;99.90;;;;;;5050133;28;20044;-77
2022/10/04 05:29:34;;;;;;;;;;;9.30;99.90;;;;;;5045530;28;20044;-77
2022/10/04 05:32:15;;;;;;;34.35;28.15;;;9.30;99.90;;;;;;5053165;28;20015;-77
2022/10/04 05:34:45;;;;;;;36.90;28.58;;;9.30;99.90;;;;;;5053149;28;20063;-77
2022/10/04 05:37:37;;;;;;;36.05;28.83;;;9.30;99.90;;;;;;5053156;28;20414;-77
2022/10/04 05:40:12;;;;;;;35.97;29.23;;;9.30;99.90;;;;;;5052988;28;20041;-77
2022/10/04 05:42:45;;;;;;;33.78;27.98;;;9.20;99.90;;;;;;5036404;28;20498;-77
2022/10/04 05:45:29;;;;;;;38.83;29.17;;;9.30;99.90;;;;;;5036664;28;20044;-77
2022/10/04 05:48:06;;;;;;;31.83;26.75;;;9.30;99.90;;;;;;5052545;28;20040;-77
2022/10/04 05:50:40;;;;;;;32.63;27.75;;;9.30;99.90;;;;;;5037474;28;20486;-77
2022/10/04 05:53:28;;;;;;;34.83;27.50;;;9.30;99.90;;;;;;5056408;28;20044;-77
2022/10/04 05:56:28;;;;;;;53.85;32.35;;;9.30;99.90;;;;;;5056462;28;20040;-77
2022/10/04 05:59:20;;;;;;;33.58;29.23;;;9.30;99.90;;;;;;5039773;28;20395;-77
2022/10/04 06:02:22;;;;;;;36.20;29.88;;;9.30;99.90;;;;;;5056574;28;20398;-77
2022/10/04 06:05:06;;;;;;;33.92;28.88;;;9.30;99.90;;;;;;5054468;28;20051;-77
2022/10/04 06:07:39;;;;;;;37.47;29.40;;;9.30;99.90;;;;;;5039380;28;20079;-77
2022/10/04 06:10:26;;;;;;;32.85;29.15;;;9.30;99.90;;;;;;5056384;28;20427;-77
2022/10/04 06:13:39;;;;;;;42.85;32.55;;;9.30;99.90;;;;;;5056027;28;20094;-76
2022/10/04 06:16:26;;;;;;;41.67;31.00;;;9.30;99.90;;;;;;5056089;28;20068;-76
2022/10/04 06:19:11;;;;;;;47.25;32.08;;;9.40;99.90;;;;;;5055814;28;20174;-76
2022/10/04 06:21:45;;;;;;;37.97;31.00;;;9.50;99.90;;;;;;5039304;28;20619;-77
2022/10/04 06:24:16;;;;;;;39.17;32.63;;;9.40;99.90;;;;;;5039902;28;20078;-77
2022/10/04 06:27:03;;;;;;;48.22;33.63;;;9.50;99.90;;;;;;5056081;28;20052;-77
2022/10/04 06:29:48;;;;;;;43.85;30.52;;;9.50;99.90;;;;;;5039086;28;20036;-77
2022/10/04 06:32:19;;;;;;;37.30;29.05;;;9.50;99.90;;;;;;5055894;28;20041;-77
2022/10/04 06:35:02;;;;;;;40.78;34.45;;;9.50;99.90;;;;;;5055788;28;20399;-76
2022/10/04 06:37:40;;;;;;;40.50;32.58;;;9.50;99.90;;;;;;5055854;28;20123;-77
2022/10/04 06:40:20;;;;;;;44.80;37.47;;;9.50;99.90;;;;;;5038996;28;20036;-76
2022/10/04 06:42:59;;;;;;;42.70;33.45;;;9.50;99.90;;;;;;5038989;28;20051;-76
2022/10/04 06:45:43;;;;;;;39.55;34.47;;;9.60;99.90;;;;;;5055761;28;20079;-76
2022/10/04 06:48:32;;;;;;;44.28;34.90;;;9.60;99.90;;;;;;5055047;28;20046;-77
2022/10/04 06:51:33;;;;;;;43.63;35.85;;;9.50;99.90;;;;;;5055720;28;20076;-76
2022/10/04 06:54:17;;;;;;;39.60;34.35;;;9.60;99.90;;;;;;5038748;28;20040;-76
2022/10/04 06:57:13;;;;;;;42.25;35.08;;;9.60;99.90;;;;;;5055209;28;20036;-77
2022/10/04 07:00:16;;;;;;;41.63;35.67;;;9.60;99.90;;;;;;5038850;28;20033;-76
2022/10/04 07:02:51;;;;;;;41.90;35.28;;;9.60;99.90;;;;;;5037910;28;20036;-77
2022/10/04 07:05:38;;;;;;;41.35;36.05;;;9.70;99.90;;;;;;5038514;28;20044;-76
2022/10/04 07:08:30;;;;;;;43.08;37.20;;;9.80;99.90;;;;;;5054979;28;20036;-76
2022/10/04 07:11:05;;;;;;;51.03;41.10;;;9.80;99.90;;;;;;5055012;28;20040;-77
2022/10/04 07:13:43;;;;;;;44.28;38.05;;;9.90;99.90;;;;;;5038567;28;20146;-77
2022/10/04 07:16:21;;;;;;;46.83;40.38;;;10.00;99.90;;;;;;5054877;28;20036;-77
2022/10/04 07:19:07;;;;;;;43.63;38.90;;;10.00;99.90;;;;;;5054865;28;20394;-76
2022/10/04 07:21:57;;;;;;;46.80;39.22;;;10.10;99.90;;;;;;5038599;28;20079;-77
2022/10/04 07:24:32;;;;;;;46.92;40.20;;;10.10;99.90;;;;;;5034140;28;20556;-77
2022/10/04 07:27:01;;;;;;;51.08;42.53;;;10.10;99.90;;;;;;5037876;28;20090;-77
2022/10/04 07:29:32;;;;;;;43.38;38.72;;;10.20;99.90;;;;;;5038273;28;20040;-77
2022/10/04 07:32:11;;;;;;;41.22;36.88;;;10.40;99.90;;;;;;5037978;28;20131;-77
2022/10/04 07:34:50;;;;;;;44.55;40.08;;;10.40;99.90;;;;;;5037900;28;20040;-76
2022/10/04 07:37:17;;;;;;;44.67;39.80;;;10.50;99.90;;;;;;5054597;28;20051;-77
2022/10/04 07:40:07;;;;;;;44.08;39.13;;;10.60;99.90;;;;;;5037779;28;20123;-77
2022/10/04 07:42:51;;;;;;;45.17;40.33;;;10.60;99.90;;;;;;5054371;28;20522;-77
2022/10/04 07:45:38;;;;;;;40.95;36.67;;;10.70;99.90;;;;;;5054602;28;20371;-76
2022/10/04 07:48:18;;;;;;;42.65;37.63;;;10.80;99.90;;;;;;5037874;28;20372;-77
2022/10/04 07:50:49;;;;;;;44.72;38.28;;;10.90;99.90;;;;;;5037757;28;20052;-77
2022/10/04 07:53:22;;;;;;;43.83;39.08;;;11.00;99.90;;;;;;5054513;28;20612;-77
2022/10/04 07:55:48;;;;;;;38.17;34.35;;;11.10;99.90;;;;;;5037738;28;20159;-77
2022/10/04 07:58:27;;;;;;;37.95;34.05;;;11.20;99.90;;;;;;5037539;28;20067;-76
2022/10/04 08:01:07;;;;;;;34.95;31.23;;;11.30;99.90;;;;;;5054158;28;20128;-77
2022/10/04 08:03:56;;;;;;;32.53;28.80;;;11.30;99.90;;;;;;5054361;28;20509;-77
2022/10/04 08:06:35;;;;;;;33.95;30.42;;;11.40;99.90;;;;;;5037424;28;20047;-76
2022/10/04 08:09:27;;;;;;;32.40;28.88;;;11.40;99.90;;;;;;5053710;28;20037;-76
2022/10/04 08:12:17;;;;;;;32.80;29.30;;;11.60;99.90;;;;;;5054014;28;20082;-76
2022/10/04 08:14:55;;;;;;;32.85;29.08;;;11.70;99.90;;;;;;5052975;28;20402;-76
2022/10/04 08:17:41;;;;;;;27.10;24.50;;;11.70;99.90;;;;;;5037209;28;20032;-76
2022/10/04 08:20:24;;;;;;;26.45;23.63;;;11.80;99.90;;;;;;5037466;28;20047;-77
2022/10/04 08:22:56;;;;;;;25.45;22.25;;;11.90;99.90;;;;;;5037133;28;20032;-76
2022/10/04 08:25:34;;;;;;;27.83;25.02;;;12.00;99.90;;;;;;5037230;28;20045;-77
2022/10/04 08:31:20;;;;;;;26.55;23.80;;;12.20;99.90;;;;;;5053648;28;20055;-76
2022/10/04 08:34:00;;;;;;;26.00;23.40;;;12.30;99.90;;;;;;5037131;28;20040;-76
2022/10/04 08:36:29;;;;;;;23.73;21.30;;;12.50;99.90;;;;;;5053900;28;20044;-76
2022/10/04 08:39:05;;;;;;;24.27;21.40;;;12.60;99.90;;;;;;5053356;28;20044;-77
2022/10/04 08:42:05;;;;;;;22.73;20.35;;;12.80;99.90;;;;;;5037327;28;20474;-77
2022/10/04 08:45:06;;;;;;;21.10;18.95;;;13.00;99.90;;;;;;5036934;28;20045;-77
2022/10/04 08:47:54;;;;;;;19.17;17.15;;;13.20;99.90;;;;;;5036821;28;20048;-77
2022/10/04 08:50:39;;;;;;;17.52;15.80;;;13.30;99.90;;;;;;5078219;22;20082;-76
2022/10/04 08:53:28;;;;;;;18.35;16.33;;;13.40;99.90;;;;;;5053474;28;20513;-76
2022/10/04 08:56:13;;;;;;;17.35;14.23;;;13.50;99.90;;;;;;5037093;28;20040;-76
2022/10/04 08:59:16;;;;;;;14.18;12.77;;;13.50;99.90;;;;;;5052994;28;20131;-76
2022/10/04 09:02:00;;;;;;;14.43;11.38;;;13.60;99.90;;;;;;5053539;28;20036;-76
2022/10/04 09:04:52;;;;;;;14.68;12.05;;;13.90;99.90;;;;;;5053676;28;20075;-76
2022/10/04 09:07:20;;;;;;;14.57;11.93;;;14.20;99.90;;;;;;5016298;28;20128;-76
2022/10/04 09:10:12;;;;;;;15.98;11.20;;;14.40;99.90;;;;;;5053550;28;20044;-77
2022/10/04 09:12:49;;;;;;;12.90;9.57;;;14.60;99.90;;;;;;5036982;28;20139;-76
2022/10/04 09:15:39;;;;;;;12.65;9.25;;;14.70;99.90;;;;;;5053210;28;20045;-77
2022/10/04 09:18:11;;;;;;;13.52;9.98;;;14.60;99.90;;;;;;5053108;28;20048;-76
2022/10/04 09:21:00;;;;;;;13.57;9.60;;;14.60;99.90;;;;;;5053189;28;20047;-77
2022/10/04 09:24:27;;;;;;;15.10;9.73;;;14.60;99.90;;;;;;5036721;28;20040;-76
2022/10/04 09:27:30;;;;;;;11.55;10.18;;;14.50;99.90;;;;;;5019100;28;20067;-76
2022/10/04 09:30:37;;;;;;;12.90;9.98;;;14.60;99.90;;;;;;5056792;28;20395;-77
2022/10/04 09:33:03;;;;;;;12.38;10.30;;;14.60;99.90;;;;;;5029926;28;20080;-76
2022/10/04 09:36:15;;;;;;;11.50;9.20;;;14.70;99.90;;;;;;5040347;28;20533;-76
2022/10/04 09:39:06;;;;;;;10.68;9.68;;;14.70;99.90;;;;;;4960287;28;20046;-77
2022/10/04 09:41:57;;;;;;;12.32;9.57;;;14.80;99.90;;;;;;4977110;28;20038;-77
2022/10/04 09:44:45;;;;;;;13.98;9.45;;;14.80;99.90;;;;;;5029422;28;20052;-76
2022/10/04 09:47:44;;;;;;;9.90;8.52;;;15.00;99.90;;;;;;5040171;28;20040;-77
2022/10/04 09:50:19;;;;;;;8.43;7.38;;;15.10;99.90;;;;;;5056447;28;20079;-77
2022/10/04 09:53:06;;;;;;;10.32;8.15;;;15.30;99.90;;;;;;5056548;28;20052;-77
2022/10/04 09:55:55;;;;;;;11.88;8.77;;;15.40;99.90;;;;;;5039883;28;20108;-77
2022/10/04 09:58:50;;;;;;;10.10;8.27;;;15.50;99.90;;;;;;5056223;28;20124;-76
2022/10/04 10:01:53;;;;;;;11.07;8.13;;;15.70;99.90;;;;;;5056490;28;20145;-77
2022/10/04 10:04:21;;;;;;;11.23;8.45;;;16.20;99.90;;;;;;4974960;28;20049;-76
2022/10/04 10:07:24;;;;;;;10.40;7.90;;;16.50;99.90;;;;;;5056395;28;20052;-77
2022/10/04 10:13:41;;;;;;;10.43;7.78;;;16.80;99.90;;;;;;5056644;28;20115;-77
2022/10/04 10:16:28;;;;;;;;;;;16.90;99.90;;;;;;5057421;28;20043;-77
2022/10/04 10:19:26;;;;;;;9.48;6.90;;;17.00;99.90;;;;;;5072538;28;19963;-77
2022/10/04 10:22:14;;;;;;;9.50;6.47;;;17.10;99.90;;;;;;5039666;28;20032;-77
2022/10/04 10:25:15;;;;;;;7.78;6.28;;;17.10;99.90;;;;;;5056257;28;20047;-77
2022/10/04 10:28:10;;;;;;;8.60;5.75;;;17.30;99.90;;;;;;5056060;28;20076;-77
2022/10/04 10:31:04;;;;;;;10.10;6.35;;;17.40;99.90;;;;;;5056325;28;20044;-77
2022/10/04 10:34:04;;;;;;;9.43;5.97;;;17.50;99.90;;;;;;5057010;28;20044;-77
2022/10/04 10:37:00;;;;;;;9.30;6.53;;;17.60;99.90;;;;;;5041815;28;20044;-77
2022/10/04 10:39:53;;;;;;;6.88;5.68;;;17.60;99.90;;;;;;5056148;28;20388;-77
2022/10/04 10:42:37;;;;;;;8.73;5.90;;;17.70;99.90;;;;;;5056051;28;20036;-76
2022/10/04 10:45:26;;;;;;;8.75;5.75;;;17.90;99.90;;;;;;5039304;28;20079;-77
2022/10/04 10:48:00;;;;;;;7.90;6.10;;;18.20;99.90;;;;;;5055530;28;20070;-78
2022/10/04 10:50:58;;;;;;;7.10;6.15;;;18.40;99.90;;;;;;5038783;28;20115;-77
2022/10/04 10:53:44;;;;;;;9.07;6.53;;;18.70;99.90;;;;;;5055647;28;20488;-77
2022/10/04 10:56:34;;;;;;;9.25;6.63;;;18.80;99.90;;;;;;5039012;28;20049;-77
2022/10/04 10:59:30;;;;;;;7.88;5.85;;;18.90;99.90;;;;;;5055139;28;20040;-77
2022/10/04 11:02:08;;;;;;;6.43;5.57;;;19.00;99.90;;;;;;5055474;28;20040;-78
2022/10/04 11:04:53;;;;;;;10.10;6.70;;;18.90;99.90;;;;;;5038979;28;20036;-77
2022/10/04 11:07:40;;;;;;;6.47;5.30;;;18.70;99.90;;;;;;5055316;28;20486;-76
2022/10/04 11:10:20;;;;;;;8.15;5.80;;;18.50;99.90;;;;;;5055337;28;20040;-80
2022/10/04 11:12:54;;;;;;;7.80;5.78;;;18.30;99.90;;;;;;5038729;28;20044;-77
2022/10/04 11:15:41;;;;;;;6.25;5.65;;;18.30;99.90;;;;;;5055619;28;20048;-78
2022/10/04 11:18:45;;;;;;;9.35;6.32;;;18.30;99.90;;;;;;5054874;28;20094;-77
2022/10/04 11:21:28;;;;;;;9.90;6.70;;;18.20;99.90;;;;;;5055001;28;20517;-77
2022/10/04 11:24:33;;;;;;;9.18;6.72;;;18.20;99.90;;;;;;5055297;28;20475;-77
2022/10/04 11:27:27;;;;;;;9.07;6.80;;;18.20;99.90;;;;;;5054619;28;20060;-77
2022/10/04 11:30:08;;;;;;;8.07;6.03;;;18.20;99.90;;;;;;5055141;28;20052;-77
2022/10/04 11:33:08;;;;;;;7.18;6.38;;;18.20;99.90;;;;;;5038100;28;20044;-75
2022/10/04 11:35:43;;;;;;;8.90;6.47;;;18.10;99.90;;;;;;5038028;28;20041;-77
2022/10/04 11:38:25;;;;;;;8.35;6.32;;;18.20;99.90;;;;;;5054718;28;20052;-77
2022/10/04 11:41:23;;;;;;;8.55;6.40;;;18.30;99.90;;;;;;5055106;28;20037;-77
2022/10/04 11:44:28;;;;;;;8.73;7.05;;;18.30;99.90;;;;;;5054557;28;20042;-77
2022/10/04 11:47:34;;;;;;;8.35;6.32;;;18.30;99.90;;;;;;5038133;28;20257;-77
2022/10/04 11:50:23;;;;;;;8.55;6.82;;;18.50;99.90;;;;;;5054271;28;20032;-76
2022/10/04 11:53:08;;;;;;;8.05;5.82;;;18.70;99.90;;;;;;5054658;28;20036;-77
2022/10/04 11:56:03;;;;;;;7.35;5.43;;;18.70;99.90;;;;;;5054314;28;20398;-77
2022/10/04 11:58:50;;;;;;;8.05;5.50;;;18.70;99.90;;;;;;5054382;28;20051;-77
2022/10/04 12:01:51;;;;;;;11.35;5.38;;;18.70;99.90;;;;;;5054706;28;20041;-77
2022/10/04 12:04:32;;;;;;;7.40;4.38;;;18.70;99.90;;;;;;5054299;28;20044;-77
2022/10/04 12:07:19;;;;;;;6.18;4.68;;;18.70;99.90;;;;;;5037508;28;20040;-77
2022/10/04 12:10:01;;;;;;;6.50;4.30;;;18.60;99.90;;;;;;5037828;28;20153;-77
2022/10/04 12:13:00;;;;;;;9.97;4.83;;;18.60;99.90;;;;;;5054289;28;20089;-77
2022/10/04 12:15:56;;;;;;;6.72;4.63;;;18.50;99.90;;;;;;5054055;28;20044;-77
2022/10/04 12:18:42;;;;;;;7.85;4.70;;;18.60;99.90;;;;;;5053815;28;20037;-77
2022/10/04 12:21:24;;;;;;;7.35;5.10;;;18.70;99.90;;;;;;5053983;28;20036;-77
2022/10/04 12:24:14;;;;;;;8.07;4.80;;;18.70;99.90;;;;;;5053835;28;20078;-77
2022/10/04 12:26:55;;;;;;;6.38;4.55;;;18.80;99.90;;;;;;5037199;28;20131;-77
2022/10/04 12:29:44;;;;;;;6.93;4.20;;;18.80;99.90;;;;;;5053981;28;20044;-77
2022/10/04 12:32:16;;;;;;;7.78;5.22;;;18.80;99.90;;;;;;5037150;28;20124;-77
2022/10/04 12:35:12;;;;;;;6.65;4.72;;;18.70;99.90;;;;;;5037090;28;20044;-77
2022/10/04 12:38:15;;;;;;;6.45;4.68;;;18.80;99.90;;;;;;5036878;28;20040;-77
2022/10/04 12:41:03;;;;;;;6.88;4.43;;;18.70;99.90;;;;;;5037099;28;20040;-77
2022/10/04 12:43:50;;;;;;;9.45;5.13;;;18.70;99.90;;;;;;5053789;28;20033;-77
2022/10/04 12:46:51;;;;;;;6.97;4.80;;;18.70;99.90;;;;;;5037341;28;20048;-77
2022/10/04 12:49:29;;;;;;;7.93;4.65;;;18.80;99.90;;;;;;5053327;28;20076;-77
2022/10/04 12:52:19;;;;;;;5.05;4.20;;;18.90;99.90;;;;;;5053980;28;20429;-77
2022/10/04 12:54:58;;;;;;;7.03;4.03;;;19.10;99.90;;;;;;5037147;28;20521;-77
2022/10/04 12:57:52;;;;;;;8.05;4.30;;;19.10;99.90;;;;;;5053456;28;20033;-77
2022/10/04 13:00:21;;;;;;;6.55;4.85;;;19.00;99.90;;;;;;5037812;28;20033;-77
2022/10/04 13:03:08;;;;;;;5.95;4.22;;;18.80;99.90;;;;;;5058001;28;20367;-77
2022/10/04 13:05:52;;;;;;;6.57;3.65;;;18.40;99.90;;;;;;5041238;28;20421;-77
2022/10/04 13:08:44;;;;;;;7.43;4.50;;;18.20;99.90;;;;;;5057227;28;20059;-77
2022/10/04 13:11:50;;;;;;;5.82;4.03;;;18.20;99.90;;;;;;5057610;28;20593;-78
2022/10/04 13:14:27;;;;;;;5.50;3.30;;;18.40;99.90;;;;;;5040648;28;20127;-78
2022/10/04 13:17:02;;;;;;;6.15;3.80;;;18.60;99.90;;;;;;5040515;28;20478;-77
2022/10/04 13:19:49;;;;;;;6.57;3.40;;;18.70;99.90;;;;;;5057101;28;20043;-77
2022/10/04 13:22:37;;;;;;;6.32;3.38;;;18.80;99.90;;;;;;5057189;28;20087;-77
2022/10/04 13:25:17;;;;;;;6.40;3.63;;;18.80;99.90;;;;;;5057388;28;20040;-76
2022/10/04 13:27:49;;;;;;;5.90;3.13;;;18.70;99.90;;;;;;5040228;28;20047;-77
2022/10/04 13:30:25;;;;;;;6.38;3.38;;;18.70;99.90;;;;;;5040542;28;20082;-77
2022/10/04 13:33:20;;;;;;;4.43;3.05;;;18.80;99.90;;;;;;5056942;28;20047;-77
2022/10/04 13:35:50;;;;;;;6.65;3.15;;;18.90;99.90;;;;;;5056763;28;20048;-77
2022/10/04 13:38:29;;;;;;;4.70;3.17;;;18.90;99.90;;;;;;5040570;28;20490;-77
2022/10/04 13:41:10;;;;;;;4.75;3.13;;;18.90;99.90;;;;;;5040865;28;20067;-77
2022/10/04 13:43:52;;;;;;;5.88;3.60;;;18.80;99.60;;;;;;5056955;28;20055;-77
2022/10/04 13:46:31;;;;;;;6.28;3.10;;;18.70;99.90;;;;;;5057013;28;20049;-77
2022/10/04 13:49:34;;;;;;;5.15;3.20;;;18.60;99.40;;;;;;5056786;28;20398;-77
2022/10/04 13:58:44;;;;;;;6.40;3.47;;;18.20;99.70;;;;;;5056259;28;20067;-77
2022/10/04 14:01:21;;;;;;;5.57;3.33;;;18.10;98.80;;;;;;5039843;28;20076;-77
2022/10/04 14:04:08;;;;;;;7.10;3.83;;;18.00;99.90;;;;;;5056486;28;20032;-77
2022/10/04 14:06:33;;;;;;;6.72;3.63;;;17.90;99.90;;;;;;5039879;28;20036;-77